sensor_id;sensor_type;location;lat;lon;timestamp;pressure;altitude;pressure_sealevel;temperature;humidity
38612;BME280;24368;52.156;20.788;2023-01-27T00:02:02;100842.25;;;-0.33;100.00
38612;BME280;24368;52.156;20.788;2023-01-27T00:07:04;100843.81;;;-0.33;100.00
38612;BME280;24368;52.156;20.788;2023-01-27T00:12:06;100841.44;;;-0.37;100.00
38612;BME280;24368;52.156;20.788;2023-01-27T00:17:26;100845.23;;;-0.52;100.00
38612;BME280;24368;52.156;20.788;2023-01-27T00:22:28;100843.35;;;-0.56;100.00
38612;BME280;24368;52.156;20.788;2023-01-27T00:27:48;100846.30;;;-0.60;100.00
38612;BME280;24368;52.156;20.788;2023-01-27T00:32:50;100848.09;;;-0.61;100.00
38612;BME280;24368;52.156;20.788;2023-01-27T00:38:10;100847.84;;;-0.63;100.00
38612;BME280;24368;52.156;20.788;2023-01-27T00:43:12;100851.17;;;-0.57;100.00
38612;BME280;24368;52.156;20.788;2023-01-27T00:48:14;100856.78;;;-0.47;100.00
38612;BME280;24368;52.156;20.788;2023-01-27T00:53:15;100849.91;;;-0.33;100.00
38612;BME280;24368;52.156;20.788;2023-01-27T00:58:17;100853.83;;;-0.36;100.00
38612;BME280;24368;52.156;20.788;2023-01-27T01:03:20;100853.78;;;-0.38;100.00
38612;BME280;24368;52.156;20.788;2023-01-27T01:08:22;100858.10;;;-0.46;100.00
38612;BME280;24368;52.156;20.788;2023-01-27T01:13:25;100857.91;;;-0.45;100.00
38612;BME280;24368;52.156;20.788;2023-01-27T01:18:28;100858.38;;;-0.48;100.00
38612;BME280;24368;52.156;20.788;2023-01-27T01:23:29;100852.77;;;-0.54;100.00
38612;BME280;24368;52.156;20.788;2023-01-27T01:28:31;100853.56;;;-0.60;100.00
38612;BME280;24368;52.156;20.788;2023-01-27T01:33:33;100853.02;;;-0.62;100.00
38612;BME280;24368;52.156;20.788;2023-01-27T01:38:35;100848.67;;;-0.63;100.00
38612;BME280;24368;52.156;20.788;2023-01-27T01:43:37;100851.92;;;-0.54;100.00
38612;BME280;24368;52.156;20.788;2023-01-27T01:53:53;100855.27;;;-0.52;100.00
38612;BME280;24368;52.156;20.788;2023-01-27T01:59:03;100860.96;;;-0.55;100.00
38612;BME280;24368;52.156;20.788;2023-01-27T02:04:19;100858.05;;;-0.59;100.00
38612;BME280;24368;52.156;20.788;2023-01-27T02:09:25;100858.17;;;-0.66;100.00
38612;BME280;24368;52.156;20.788;2023-01-27T02:14:28;100857.97;;;-0.69;100.00
38612;BME280;24368;52.156;20.788;2023-01-27T02:24:58;100857.35;;;-0.74;100.00
38612;BME280;24368;52.156;20.788;2023-01-27T02:30:02;100856.77;;;-0.77;100.00
38612;BME280;24368;52.156;20.788;2023-01-27T02:35:05;100858.50;;;-0.73;100.00
38612;BME280;24368;52.156;20.788;2023-01-27T02:40:09;100866.17;;;-0.63;100.00
38612;BME280;24368;52.156;20.788;2023-01-27T02:45:13;100864.27;;;-0.56;100.00
38612;BME280;24368;52.156;20.788;2023-01-27T02:50:16;100863.46;;;-0.57;100.00
38612;BME280;24368;52.156;20.788;2023-01-27T02:55:17;100861.73;;;-0.60;100.00
38612;BME280;24368;52.156;20.788;2023-01-27T03:00:20;100860.45;;;-0.62;100.00
38612;BME280;24368;52.156;20.788;2023-01-27T03:05:21;100855.80;;;-0.67;100.00
38612;BME280;24368;52.156;20.788;2023-01-27T03:10:23;100858.73;;;-0.70;100.00
38612;BME280;24368;52.156;20.788;2023-01-27T03:15:25;100863.58;;;-0.74;100.00
38612;BME280;24368;52.156;20.788;2023-01-27T03:20:47;100862.86;;;-0.74;100.00
38612;BME280;24368;52.156;20.788;2023-01-27T03:25:49;100860.83;;;-0.71;100.00
38612;BME280;24368;52.156;20.788;2023-01-27T03:30:58;100866.19;;;-0.63;100.00
38612;BME280;24368;52.156;20.788;2023-01-27T03:36:01;100870.63;;;-0.54;100.00
38612;BME280;24368;52.156;20.788;2023-01-27T03:41:22;100866.20;;;-0.52;100.00
38612;BME280;24368;52.156;20.788;2023-01-27T03:46:42;100866.60;;;-0.61;100.00
38612;BME280;24368;52.156;20.788;2023-01-27T03:51:45;100864.77;;;-0.66;100.00
38612;BME280;24368;52.156;20.788;2023-01-27T03:56:46;100862.67;;;-0.69;100.00
38612;BME280;24368;52.156;20.788;2023-01-27T04:01:48;100868.17;;;-0.73;100.00
38612;BME280;24368;52.156;20.788;2023-01-27T04:06:50;100876.15;;;-0.73;100.00
38612;BME280;24368;52.156;20.788;2023-01-27T04:12:05;100882.05;;;-0.73;100.00
38612;BME280;24368;52.156;20.788;2023-01-27T04:17:13;100882.00;;;-0.77;100.00
38612;BME280;24368;52.156;20.788;2023-01-27T04:22:15;100880.17;;;-0.74;100.00
38612;BME280;24368;52.156;20.788;2023-01-27T04:27:17;100884.30;;;-0.62;100.00
38612;BME280;24368;52.156;20.788;2023-01-27T04:32:20;100884.41;;;-0.50;100.00
38612;BME280;24368;52.156;20.788;2023-01-27T04:37:22;100886.42;;;-0.44;100.00
38612;BME280;24368;52.156;20.788;2023-01-27T04:42:24;100892.33;;;-0.48;100.00
38612;BME280;24368;52.156;20.788;2023-01-27T04:47:25;100889.90;;;-0.48;100.00
38612;BME280;24368;52.156;20.788;2023-01-27T04:52:27;100885.02;;;-0.51;100.00
38612;BME280;24368;52.156;20.788;2023-01-27T04:57:29;100891.10;;;-0.55;100.00
38612;BME280;24368;52.156;20.788;2023-01-27T05:02:31;100900.78;;;-0.56;100.00
38612;BME280;24368;52.156;20.788;2023-01-27T05:07:33;100899.95;;;-0.60;100.00
38612;BME280;24368;52.156;20.788;2023-01-27T05:12:34;100902.50;;;-0.66;100.00
38612;BME280;24368;52.156;20.788;2023-01-27T05:17:36;100907.05;;;-0.71;100.00
38612;BME280;24368;52.156;20.788;2023-01-27T05:22:38;100911.11;;;-0.69;100.00
38612;BME280;24368;52.156;20.788;2023-01-27T05:27:39;100914.16;;;-0.64;100.00
38612;BME280;24368;52.156;20.788;2023-01-27T05:32:41;100921.98;;;-0.57;100.00
38612;BME280;24368;52.156;20.788;2023-01-27T05:37:43;100932.84;;;-0.48;100.00
38612;BME280;24368;52.156;20.788;2023-01-27T05:42:44;100935.90;;;-0.47;100.00
38612;BME280;24368;52.156;20.788;2023-01-27T05:47:50;100932.58;;;-0.50;100.00
38612;BME280;24368;52.156;20.788;2023-01-27T05:52:54;100932.29;;;-0.55;100.00
38612;BME280;24368;52.156;20.788;2023-01-27T05:57:56;100928.09;;;-0.66;100.00
38612;BME280;24368;52.156;20.788;2023-01-27T06:02:58;100930.27;;;-0.76;100.00
38612;BME280;24368;52.156;20.788;2023-01-27T06:07:59;100935.13;;;-0.81;100.00
38612;BME280;24368;52.156;20.788;2023-01-27T06:13:01;100938.17;;;-0.87;100.00
38612;BME280;24368;52.156;20.788;2023-01-27T06:18:03;100945.19;;;-0.85;100.00
38612;BME280;24368;52.156;20.788;2023-01-27T06:23:06;100957.23;;;-0.80;100.00
38612;BME280;24368;52.156;20.788;2023-01-27T06:28:09;100959.17;;;-0.73;100.00
38612;BME280;24368;52.156;20.788;2023-01-27T06:33:11;100963.92;;;-0.66;100.00
38612;BME280;24368;52.156;20.788;2023-01-27T06:38:13;100967.21;;;-0.66;100.00
38612;BME280;24368;52.156;20.788;2023-01-27T06:43:16;100973.16;;;-0.68;100.00
38612;BME280;24368;52.156;20.788;2023-01-27T06:48:18;100972.33;;;-0.68;100.00
38612;BME280;24368;52.156;20.788;2023-01-27T06:53:20;100973.98;;;-0.66;100.00
38612;BME280;24368;52.156;20.788;2023-01-27T06:58:22;100982.49;;;-0.63;100.00
38612;BME280;24368;52.156;20.788;2023-01-27T07:03:24;100982.73;;;-0.57;100.00
38612;BME280;24368;52.156;20.788;2023-01-27T07:08:26;100987.83;;;-0.55;100.00
38612;BME280;24368;52.156;20.788;2023-01-27T07:13:28;100985.02;;;-0.50;100.00
38612;BME280;24368;52.156;20.788;2023-01-27T07:18:30;100989.15;;;-0.34;100.00
38612;BME280;24368;52.156;20.788;2023-01-27T07:23:31;100993.13;;;-0.18;100.00
38612;BME280;24368;52.156;20.788;2023-01-27T07:28:33;100993.52;;;-0.08;100.00
38612;BME280;24368;52.156;20.788;2023-01-27T07:33:35;100995.86;;;-0.10;100.00
38612;BME280;24368;52.156;20.788;2023-01-27T07:38:37;100998.65;;;-0.10;100.00
38612;BME280;24368;52.156;20.788;2023-01-27T07:43:39;100996.78;;;-0.11;100.00
38612;BME280;24368;52.156;20.788;2023-01-27T07:48:41;100996.72;;;-0.14;100.00
38612;BME280;24368;52.156;20.788;2023-01-27T07:53:43;100999.69;;;-0.11;100.00
38612;BME280;24368;52.156;20.788;2023-01-27T07:58:45;100998.27;;;-0.07;100.00
38612;BME280;24368;52.156;20.788;2023-01-27T08:03:46;100996.55;;;-0.03;100.00
38612;BME280;24368;52.156;20.788;2023-01-27T08:08:48;100994.19;;;0.04;100.00
38612;BME280;24368;52.156;20.788;2023-01-27T08:13:50;100995.20;;;0.08;100.00
38612;BME280;24368;52.156;20.788;2023-01-27T08:18:52;100994.38;;;0.25;100.00
38612;BME280;24368;52.156;20.788;2023-01-27T08:23:54;100998.83;;;0.41;100.00
38612;BME280;24368;52.156;20.788;2023-01-27T08:28:56;100999.80;;;0.50;100.00
38612;BME280;24368;52.156;20.788;2023-01-27T08:33:58;101002.05;;;0.50;100.00
38612;BME280;24368;52.156;20.788;2023-01-27T08:38:59;101005.91;;;0.59;100.00
38612;BME280;24368;52.156;20.788;2023-01-27T08:44:01;101009.34;;;0.60;100.00
38612;BME280;24368;52.156;20.788;2023-01-27T08:49:04;101015.08;;;0.64;100.00
38612;BME280;24368;52.156;20.788;2023-01-27T08:54:06;101019.56;;;0.71;100.00
38612;BME280;24368;52.156;20.788;2023-01-27T08:59:08;101019.50;;;0.80;100.00
38612;BME280;24368;52.156;20.788;2023-01-27T09:04:10;101024.02;;;0.90;100.00
38612;BME280;24368;52.156;20.788;2023-01-27T09:09:11;101023.63;;;0.91;100.00
38612;BME280;24368;52.156;20.788;2023-01-27T09:14:13;101022.80;;;1.08;100.00
38612;BME280;24368;52.156;20.788;2023-01-27T09:19:15;101022.15;;;1.24;100.00
38612;BME280;24368;52.156;20.788;2023-01-27T09:24:17;101023.63;;;1.22;100.00
38612;BME280;24368;52.156;20.788;2023-01-27T09:29:20;101022.25;;;1.22;100.00
38612;BME280;24368;52.156;20.788;2023-01-27T09:34:21;101018.73;;;1.16;100.00
38612;BME280;24368;52.156;20.788;2023-01-27T09:39:23;101024.42;;;1.10;100.00
38612;BME280;24368;52.156;20.788;2023-01-27T10:11:18;101018.31;;;1.88;100.00
38612;BME280;24368;52.156;20.788;2023-01-27T10:17:02;101020.55;;;2.01;99.76
38612;BME280;24368;52.156;20.788;2023-01-27T10:22:24;101024.91;;;1.81;98.08
38612;BME280;24368;52.156;20.788;2023-01-27T10:27:36;101026.80;;;1.65;99.22
38612;BME280;24368;52.156;20.788;2023-01-27T10:32:45;101030.30;;;1.61;100.00
38612;BME280;24368;52.156;20.788;2023-01-27T10:59:22;101045.00;;;1.29;100.00
38612;BME280;24368;52.156;20.788;2023-01-27T11:04:37;101043.91;;;1.30;100.00
38612;BME280;24368;52.156;20.788;2023-01-27T11:09:50;101043.83;;;1.28;100.00
38612;BME280;24368;52.156;20.788;2023-01-27T11:14:54;101036.98;;;1.26;100.00
38612;BME280;24368;52.156;20.788;2023-01-27T11:30:18;101021.31;;;1.41;98.77
38612;BME280;24368;52.156;20.788;2023-01-27T11:35:22;101017.67;;;1.40;98.40
38612;BME280;24368;52.156;20.788;2023-01-27T11:40:33;101018.11;;;1.32;98.54
38612;BME280;24368;52.156;20.788;2023-01-27T11:45:36;101014.83;;;1.28;99.19
38612;BME280;24368;52.156;20.788;2023-01-27T11:50:40;101013.04;;;1.26;99.62
38612;BME280;24368;52.156;20.788;2023-01-27T11:55:47;101013.95;;;1.29;100.00
38612;BME280;24368;52.156;20.788;2023-01-27T12:00:59;101017.02;;;1.26;100.00
38612;BME280;24368;52.156;20.788;2023-01-27T12:06:09;101016.31;;;1.23;100.00
38612;BME280;24368;52.156;20.788;2023-01-27T12:11:22;101011.60;;;1.34;99.79
38612;BME280;24368;52.156;20.788;2023-01-27T12:16:45;101013.73;;;1.43;99.73
38612;BME280;24368;52.156;20.788;2023-01-27T12:21:51;101017.46;;;1.38;99.43
38612;BME280;24368;52.156;20.788;2023-01-27T12:26:55;101019.06;;;1.37;99.89
38612;BME280;24368;52.156;20.788;2023-01-27T12:31:59;101017.13;;;1.37;99.77
38612;BME280;24368;52.156;20.788;2023-01-27T12:37:03;101014.30;;;1.38;100.00
38612;BME280;24368;52.156;20.788;2023-01-27T12:42:42;101019.41;;;1.37;100.00
38612;BME280;24368;52.156;20.788;2023-01-27T12:53:23;101020.58;;;1.38;100.00
38612;BME280;24368;52.156;20.788;2023-01-27T12:58:38;101029.22;;;1.39;100.00
38612;BME280;24368;52.156;20.788;2023-01-27T13:03:41;101028.45;;;1.37;100.00
38612;BME280;24368;52.156;20.788;2023-01-27T13:08:43;101024.29;;;1.34;100.00
38612;BME280;24368;52.156;20.788;2023-01-27T13:13:50;101018.10;;;1.42;100.00
38612;BME280;24368;52.156;20.788;2023-01-27T13:18:54;101007.35;;;1.52;100.00
38612;BME280;24368;52.156;20.788;2023-01-27T13:23:56;101006.74;;;1.50;100.00
38612;BME280;24368;52.156;20.788;2023-01-27T13:29:10;101009.38;;;1.43;100.00
38612;BME280;24368;52.156;20.788;2023-01-27T13:34:37;101019.38;;;1.48;100.00
38612;BME280;24368;52.156;20.788;2023-01-27T13:45:14;101025.49;;;1.50;100.00
38612;BME280;24368;52.156;20.788;2023-01-27T13:56:13;101032.90;;;1.38;100.00
38612;BME280;24368;52.156;20.788;2023-01-27T14:11:39;101040.47;;;1.36;100.00
38612;BME280;24368;52.156;20.788;2023-01-27T14:27:40;101045.22;;;1.17;100.00
38612;BME280;24368;52.156;20.788;2023-01-27T14:32:51;101049.65;;;1.19;100.00
38612;BME280;24368;52.156;20.788;2023-01-27T14:38:20;101048.48;;;1.21;100.00
38612;BME280;24368;52.156;20.788;2023-01-27T14:43:35;101047.77;;;1.21;100.00
38612;BME280;24368;52.156;20.788;2023-01-27T14:49:02;101047.58;;;1.15;100.00
38612;BME280;24368;52.156;20.788;2023-01-27T14:54:33;101050.45;;;1.07;100.00
38612;BME280;24368;52.156;20.788;2023-01-27T15:04:57;101054.64;;;1.06;100.00
38612;BME280;24368;52.156;20.788;2023-01-27T15:10:23;101055.75;;;1.05;100.00
38612;BME280;24368;52.156;20.788;2023-01-27T15:26:21;101044.39;;;0.85;100.00
38612;BME280;24368;52.156;20.788;2023-01-27T15:31:29;101049.48;;;0.88;100.00
38612;BME280;24368;52.156;20.788;2023-01-27T15:36:38;101060.61;;;0.91;100.00
38612;BME280;24368;52.156;20.788;2023-01-27T15:41:52;101063.56;;;0.91;100.00
38612;BME280;24368;52.156;20.788;2023-01-27T15:47:10;101067.60;;;0.90;100.00
38612;BME280;24368;52.156;20.788;2023-01-27T16:02:37;101074.54;;;0.86;100.00
38612;BME280;24368;52.156;20.788;2023-01-27T16:07:40;101076.04;;;0.94;100.00
38612;BME280;24368;52.156;20.788;2023-01-27T16:12:43;101080.23;;;0.94;100.00
38612;BME280;24368;52.156;20.788;2023-01-27T16:23:13;101085.66;;;0.82;100.00
38612;BME280;24368;52.156;20.788;2023-01-27T16:28:26;101090.40;;;0.77;100.00
38612;BME280;24368;52.156;20.788;2023-01-27T16:33:38;101090.61;;;0.80;100.00
38612;BME280;24368;52.156;20.788;2023-01-27T16:38:42;101091.75;;;0.92;100.00
38612;BME280;24368;52.156;20.788;2023-01-27T16:44:46;101095.56;;;0.96;100.00
38612;BME280;24368;52.156;20.788;2023-01-27T16:49:49;101097.16;;;0.92;100.00
38612;BME280;24368;52.156;20.788;2023-01-27T16:54:52;101099.96;;;0.87;100.00
38612;BME280;24368;52.156;20.788;2023-01-27T16:59:57;101099.71;;;0.82;100.00
38612;BME280;24368;52.156;20.788;2023-01-27T17:05:04;101101.35;;;0.84;100.00
38612;BME280;24368;52.156;20.788;2023-01-27T17:10:14;101103.16;;;0.90;100.00
38612;BME280;24368;52.156;20.788;2023-01-27T17:15:18;101098.45;;;0.90;100.00
38612;BME280;24368;52.156;20.788;2023-01-27T17:20:29;101098.23;;;0.87;100.00
38612;BME280;24368;52.156;20.788;2023-01-27T17:25:36;101098.98;;;0.75;100.00
38612;BME280;24368;52.156;20.788;2023-01-27T17:30:40;101107.05;;;0.73;100.00
38612;BME280;24368;52.156;20.788;2023-01-27T17:35:48;101107.75;;;0.81;100.00
38612;BME280;24368;52.156;20.788;2023-01-27T17:40:53;101110.54;;;0.81;100.00
38612;BME280;24368;52.156;20.788;2023-01-27T17:51:09;101114.74;;;0.76;100.00
38612;BME280;24368;52.156;20.788;2023-01-27T17:56:21;101117.09;;;0.70;100.00
38612;BME280;24368;52.156;20.788;2023-01-27T18:01:23;101120.59;;;0.69;100.00
38612;BME280;24368;52.156;20.788;2023-01-27T18:06:27;101119.74;;;0.77;100.00
38612;BME280;24368;52.156;20.788;2023-01-27T18:11:31;101125.05;;;0.82;100.00
38612;BME280;24368;52.156;20.788;2023-01-27T18:16:34;101129.14;;;0.79;100.00
38612;BME280;24368;52.156;20.788;2023-01-27T18:21:36;101129.44;;;0.73;100.00
38612;BME280;24368;52.156;20.788;2023-01-27T18:26:40;101130.77;;;0.67;100.00
38612;BME280;24368;52.156;20.788;2023-01-27T18:31:46;101129.73;;;0.67;100.00
38612;BME280;24368;52.156;20.788;2023-01-27T18:41:54;101141.61;;;0.80;100.00
38612;BME280;24368;52.156;20.788;2023-01-27T18:47:12;101143.30;;;0.81;100.00
38612;BME280;24368;52.156;20.788;2023-01-27T18:52:19;101150.77;;;0.77;100.00
38612;BME280;24368;52.156;20.788;2023-01-27T18:57:21;101155.70;;;0.72;100.00
38612;BME280;24368;52.156;20.788;2023-01-27T19:02:23;101160.46;;;0.66;100.00
38612;BME280;24368;52.156;20.788;2023-01-27T19:07:25;101164.13;;;0.65;100.00
38612;BME280;24368;52.156;20.788;2023-01-27T19:12:27;101168.96;;;0.73;100.00
38612;BME280;24368;52.156;20.788;2023-01-27T19:17:29;101170.56;;;0.80;100.00
38612;BME280;24368;52.156;20.788;2023-01-27T19:22:31;101178.15;;;0.81;100.00
38612;BME280;24368;52.156;20.788;2023-01-27T19:27:32;101177.88;;;0.76;100.00
38612;BME280;24368;52.156;20.788;2023-01-27T19:32:34;101178.36;;;0.69;100.00
38612;BME280;24368;52.156;20.788;2023-01-27T19:37:37;101185.95;;;0.62;100.00
38612;BME280;24368;52.156;20.788;2023-01-27T19:42:39;101193.35;;;0.63;100.00
38612;BME280;24368;52.156;20.788;2023-01-27T19:47:41;101188.90;;;0.66;100.00
38612;BME280;24368;52.156;20.788;2023-01-27T19:52:45;101191.13;;;0.71;100.00
38612;BME280;24368;52.156;20.788;2023-01-27T19:57:48;101194.30;;;0.65;100.00
38612;BME280;24368;52.156;20.788;2023-01-27T20:02:51;101200.39;;;0.57;100.00
38612;BME280;24368;52.156;20.788;2023-01-27T20:07:57;101202.48;;;0.54;100.00
38612;BME280;24368;52.156;20.788;2023-01-27T20:13:01;101204.52;;;0.51;100.00
38612;BME280;24368;52.156;20.788;2023-01-27T20:18:04;101211.61;;;0.55;100.00
38612;BME280;24368;52.156;20.788;2023-01-27T20:23:07;101219.26;;;0.58;100.00
38612;BME280;24368;52.156;20.788;2023-01-27T20:28:11;101225.23;;;0.57;100.00
38612;BME280;24368;52.156;20.788;2023-01-27T20:33:13;101224.11;;;0.51;100.00
38612;BME280;24368;52.156;20.788;2023-01-27T20:38:15;101225.58;;;0.45;100.00
38612;BME280;24368;52.156;20.788;2023-01-27T20:43:17;101228.32;;;0.46;100.00
38612;BME280;24368;52.156;20.788;2023-01-27T20:48:21;101226.72;;;0.51;100.00
38612;BME280;24368;52.156;20.788;2023-01-27T20:53:23;101227.70;;;0.48;100.00
38612;BME280;24368;52.156;20.788;2023-01-27T20:58:25;101228.08;;;0.47;100.00
38612;BME280;24368;52.156;20.788;2023-01-27T21:03:27;101232.63;;;0.50;100.00
38612;BME280;24368;52.156;20.788;2023-01-27T21:08:30;101228.56;;;0.52;100.00
38612;BME280;24368;52.156;20.788;2023-01-27T21:13:32;101227.44;;;0.46;100.00
38612;BME280;24368;52.156;20.788;2023-01-27T21:18:35;101230.14;;;0.40;100.00
38612;BME280;24368;52.156;20.788;2023-01-27T21:23:37;101228.55;;;0.40;100.00
38612;BME280;24368;52.156;20.788;2023-01-27T21:28:39;101226.14;;;0.48;100.00
38612;BME280;24368;52.156;20.788;2023-01-27T21:33:41;101225.99;;;0.52;100.00
38612;BME280;24368;52.156;20.788;2023-01-27T21:38:47;101227.73;;;0.51;100.00
38612;BME280;24368;52.156;20.788;2023-01-27T21:43:51;101225.95;;;0.44;100.00
38612;BME280;24368;52.156;20.788;2023-01-27T21:49:11;101218.35;;;0.36;100.00
38612;BME280;24368;52.156;20.788;2023-01-27T21:54:13;101218.48;;;0.37;100.00
38612;BME280;24368;52.156;20.788;2023-01-27T21:59:14;101213.77;;;0.41;100.00
38612;BME280;24368;52.156;20.788;2023-01-27T22:04:16;101213.52;;;0.43;100.00
38612;BME280;24368;52.156;20.788;2023-01-27T22:09:18;101202.14;;;0.38;100.00
38612;BME280;24368;52.156;20.788;2023-01-27T22:14:20;101201.44;;;0.34;100.00
38612;BME280;24368;52.156;20.788;2023-01-27T22:19:21;101199.89;;;0.38;100.00
38612;BME280;24368;52.156;20.788;2023-01-27T22:24:23;101201.44;;;0.42;100.00
38612;BME280;24368;52.156;20.788;2023-01-27T22:29:25;101199.43;;;0.40;100.00
38612;BME280;24368;52.156;20.788;2023-01-27T22:34:27;101200.42;;;0.34;100.00
38612;BME280;24368;52.156;20.788;2023-01-27T22:39:28;101203.83;;;0.28;100.00
38612;BME280;24368;52.156;20.788;2023-01-27T22:44:30;101203.71;;;0.30;100.00
38612;BME280;24368;52.156;20.788;2023-01-27T22:49:32;101196.55;;;0.39;100.00
38612;BME280;24368;52.156;20.788;2023-01-27T22:54:34;101200.45;;;0.41;100.00
38612;BME280;24368;52.156;20.788;2023-01-27T22:59:36;101187.84;;;0.36;100.00
38612;BME280;24368;52.156;20.788;2023-01-27T23:04:37;101184.34;;;0.29;100.00
38612;BME280;24368;52.156;20.788;2023-01-27T23:09:39;101185.27;;;0.23;100.00
38612;BME280;24368;52.156;20.788;2023-01-27T23:14:41;101185.32;;;0.22;100.00
38612;BME280;24368;52.156;20.788;2023-01-27T23:19:43;101189.08;;;0.28;100.00
38612;BME280;24368;52.156;20.788;2023-01-27T23:24:44;101185.98;;;0.31;100.00
38612;BME280;24368;52.156;20.788;2023-01-27T23:29:46;101187.52;;;0.32;100.00
38612;BME280;24368;52.156;20.788;2023-01-27T23:34:48;101183.98;;;0.29;100.00
38612;BME280;24368;52.156;20.788;2023-01-27T23:39:50;101183.73;;;0.27;100.00
38612;BME280;24368;52.156;20.788;2023-01-27T23:44:52;101183.95;;;0.22;100.00
38612;BME280;24368;52.156;20.788;2023-01-27T23:49:54;101180.33;;;0.17;100.00
38612;BME280;24368;52.156;20.788;2023-01-27T23:54:56;101178.02;;;0.27;100.00
38612;BME280;24368;52.156;20.788;2023-01-27T23:59:57;101176.86;;;0.33;100.00
